Time;durP1;ratioP1;P1;durP2;ratioP2;P2;SDS_P1;SDS_P2;PMS_P1;PMS_P2;Temp;Humidity;BMP_temperature;BMP_pressure;BME280_temperature;BME280_humidity;BME280_pressure;Samples;Min_cycle;Max_cycle;Signal;HPM_P1;HPM_P2
2021/03/01 00:00:45;;;;;;;34.20;22.53;;;;;;;;;;5073512;27;36882;-77
2021/03/01 00:03:11;;;;;;;31.20;22.70;;;;;;;;;;5079569;27;39844;-76
2021/03/01 00:05:38;;;;;;;30.50;21.33;;;;;;;;;;5061123;28;38660;-76
2021/03/01 00:08:04;;;;;;;33.80;23.67;;;;;;;;;;5068873;28;39263;-78
2021/03/01 00:10:31;;;;;;;35.63;22.47;;;;;;;;;;5062121;27;38043;-76
2021/03/01 00:12:57;;;;;;;34.40;22.73;;;;;;;;;;5055926;28;39261;-76
2021/03/01 00:15:25;;;;;;;32.23;22.43;;;;;;;;;;5054264;28;39165;-76
2021/03/01 00:17:51;;;;;;;30.33;22.20;;;;;;;;;;5056511;28;37948;-77
2021/03/01 00:20:18;;;;;;;38.87;25.27;;;;;;;;;;5059182;28;37419;-77
2021/03/01 00:22:45;;;;;;;31.03;22.50;;;;;;;;;;5056312;28;39690;-76
2021/03/01 00:25:12;;;;;;;30.47;22.80;;;;;;;;;;5055018;27;39510;-77
2021/03/01 00:27:39;;;;;;;32.07;23.13;;;;;;;;;;5058430;28;37167;-77
2021/03/01 00:30:07;;;;;;;37.43;25.40;;;;;;;;;;5074061;27;37889;-76
2021/03/01 00:32:33;;;;;;;37.33;26.47;;;;;;;;;;5059362;28;37866;-76
2021/03/01 00:35:00;;;;;;;30.17;22.00;;;;;;;;;;5064528;28;39191;-76
2021/03/01 00:37:27;;;;;;;36.83;24.80;;;;;;;;;;5064765;28;38326;-76
2021/03/01 00:39:53;;;;;;;34.47;24.30;;;;;;;;;;5087994;28;38595;-76
2021/03/01 00:42:19;;;;;;;34.53;23.70;;;;;;;;;;5058796;28;38111;-76
2021/03/01 00:44:46;;;;;;;38.80;25.53;;;;;;;;;;5060160;27;39768;-77
2021/03/01 00:47:12;;;;;;;40.50;25.80;;;;;;;;;;5058397;28;39259;-77
2021/03/01 00:49:38;;;;;;;39.70;25.00;;;;;;;;;;5059497;28;37067;-77
2021/03/01 00:52:05;;;;;;;41.60;26.60;;;;;;;;;;5055530;28;38854;-79
2021/03/01 00:54:31;;;;;;;37.00;24.47;;;;;;;;;;5061482;28;40147;-76
2021/03/01 00:56:58;;;;;;;41.17;25.43;;;;;;;;;;5062188;28;40241;-77
2021/03/01 00:59:26;;;;;;;34.30;25.47;;;;;;;;;;5060613;28;37460;-77
2021/03/01 01:01:52;;;;;;;48.53;30.67;;;;;;;;;;5069085;28;38811;-76
2021/03/01 01:04:19;;;;;;;44.90;27.87;;;;;;;;;;5060552;28;36710;-79
2021/03/01 01:06:45;;;;;;;40.93;27.10;;;;;;;;;;5063746;28;37337;-75
2021/03/01 01:09:11;;;;;;;37.60;26.27;;;;;;;;;;5060985;27;37649;-77
2021/03/01 01:11:38;;;;;;;39.07;26.63;;;;;;;;;;5057275;28;39235;-76
2021/03/01 01:14:04;;;;;;;43.83;28.87;;;;;;;;;;5055957;28;39983;-77
2021/03/01 01:16:30;;;;;;;46.03;28.10;;;;;;;;;;5062334;28;38299;-78
2021/03/01 01:18:57;;;;;;;36.97;25.63;;;;;;;;;;5058705;28;37007;-76
2021/03/01 01:21:23;;;;;;;41.60;27.77;;;;;;;;;;5058368;28;39411;-75
2021/03/01 01:23:49;;;;;;;41.97;27.53;;;;;;;;;;5052336;28;38941;-76
2021/03/01 01:26:16;;;;;;;48.77;27.93;;;;;;;;;;5059185;28;39136;-76
2021/03/01 01:28:42;;;;;;;42.53;28.73;;;;;;;;;;5059955;28;37606;-76
2021/03/01 01:31:09;;;;;;;39.13;27.17;;;;;;;;;;5055730;28;39115;-76
2021/03/01 01:33:35;;;;;;;43.20;29.37;;;;;;;;;;5064664;28;38991;-78
2021/03/01 01:36:01;;;;;;;45.70;29.27;;;;;;;;;;5062538;28;38988;-76
2021/03/01 01:38:28;;;;;;;45.13;30.50;;;;;;;;;;5071554;28;48814;-78
2021/03/01 01:40:54;;;;;;;55.23;32.90;;;;;;;;;;5084754;28;39032;-77
2021/03/01 01:43:21;;;;;;;58.20;36.03;;;;;;;;;;5077637;28;38840;-76
2021/03/01 01:45:47;;;;;;;55.00;32.63;;;;;;;;;;5097310;28;39282;-79
2021/03/01 01:48:13;;;;;;;45.53;30.80;;;;;;;;;;5081420;28;37006;-74
2021/03/01 01:50:40;;;;;;;48.07;31.10;;;;;;;;;;5078847;28;37700;-76
2021/03/01 01:53:06;;;;;;;49.47;29.67;;;;;;;;;;5084356;28;38818;-76
2021/03/01 01:55:33;;;;;;;48.00;29.43;;;;;;;;;;5082730;28;38440;-77
2021/03/01 01:57:59;;;;;;;50.83;31.60;;;;;;;;;;5075024;28;37805;-79
2021/03/01 02:03:08;;;;;;;58.33;34.23;;;;;;;;;;5083744;28;38764;-76
2021/03/01 02:05:35;;;;;;;;;;;;;;;;;;5089606;28;38484;-77
2021/03/01 02:08:04;;;;;;;56.10;32.57;;;;;;;;;;5084106;28;37773;-76
2021/03/01 02:10:35;;;;;;;56.37;33.07;;;;;;;;;;5084750;28;47051;-75
2021/03/01 02:13:16;;;;;;;67.23;35.03;;;;;;;;;;5086150;28;39130;-78
2021/03/01 02:15:51;;;;;;;55.87;32.77;;;;;;;;;;5088142;28;49135;-77
2021/03/01 02:18:17;;;;;;;58.90;34.77;;;;;;;;;;5090738;28;38419;-75
2021/03/01 02:20:44;;;;;;;57.70;32.40;;;;;;;;;;5086756;28;37820;-77
2021/03/01 02:23:11;;;;;;;68.57;37.47;;;;;;;;;;5085898;27;40177;-76
2021/03/01 02:25:41;;;;;;;82.67;42.07;;;;;;;;;;5083966;27;38958;-75
2021/03/01 02:28:09;;;;;;;70.77;38.07;;;;;;;;;;5081823;27;37343;-75
2021/03/01 02:30:37;;;;;;;63.27;34.80;;;;;;;;;;5074142;28;39978;-78
2021/03/01 02:33:08;;;;;;;79.57;36.90;;;;;;;;;;5086905;28;37444;-78
2021/03/01 02:35:36;;;;;;;56.30;33.37;;;;;;;;;;5097418;28;38106;-78
2021/03/01 02:38:04;;;;;;;74.57;36.13;;;;;;;;;;5091261;28;38118;-76
2021/03/01 02:40:30;;;;;;;78.17;40.03;;;;;;;;;;5093303;28;41110;-77
2021/03/01 02:42:57;;;;;;;75.70;38.37;;;;;;;;;;5066521;28;39579;-79
2021/03/01 02:45:27;;;;;;;67.53;35.40;;;;;;;;;;5067543;28;38101;-77
2021/03/01 02:47:54;;;;;;;77.57;39.70;;;;;;;;;;5046536;28;38082;-76
2021/03/01 02:50:21;;;;;;;75.67;38.33;;;;;;;;;;5068294;28;38637;-78
2021/03/01 02:52:48;;;;;;;92.87;42.50;;;;;;;;;;5070116;28;39144;-76
2021/03/01 02:55:15;;;;;;;97.50;41.07;;;;;;;;;;5064121;28;38834;-76
2021/03/01 02:57:42;;;;;;;63.10;35.77;;;;;;;;;;5079956;28;37969;-75
2021/03/01 03:00:10;;;;;;;78.17;38.10;;;;;;;;;;5063731;28;39948;-78
2021/03/01 03:02:38;;;;;;;80.43;37.43;;;;;;;;;;5060505;28;38582;-75
2021/03/01 03:05:06;;;;;;;77.70;38.43;;;;;;;;;;5077760;28;39682;-76
2021/03/01 03:07:33;;;;;;;79.03;38.90;;;;;;;;;;5066175;28;38067;-76
2021/03/01 03:09:59;;;;;;;80.83;40.47;;;;;;;;;;5067530;28;38226;-76
2021/03/01 03:12:26;;;;;;;92.93;41.77;;;;;;;;;;5086185;28;39642;-76
2021/03/01 03:14:54;;;;;;;93.53;41.67;;;;;;;;;;5085909;28;40035;-78
2021/03/01 03:17:21;;;;;;;76.67;39.13;;;;;;;;;;5079705;28;38797;-77
2021/03/01 03:19:47;;;;;;;73.83;39.07;;;;;;;;;;5085784;28;38941;-76
2021/03/01 03:22:14;;;;;;;119.57;47.33;;;;;;;;;;5083136;28;40329;-75
2021/03/01 03:24:41;;;;;;;75.93;38.60;;;;;;;;;;5096433;27;38977;-75
2021/03/01 03:27:07;;;;;;;112.50;45.93;;;;;;;;;;5079720;28;38730;-75
2021/03/01 03:29:33;;;;;;;99.53;43.80;;;;;;;;;;5081522;28;39206;-75
2021/03/01 03:32:00;;;;;;;115.37;46.93;;;;;;;;;;5082117;28;39351;-76
2021/03/01 03:34:26;;;;;;;83.00;42.93;;;;;;;;;;5079557;28;39321;-75
2021/03/01 03:36:56;;;;;;;78.87;40.50;;;;;;;;;;5076118;28;37844;-77
2021/03/01 03:39:22;;;;;;;66.67;37.67;;;;;;;;;;5083111;27;40155;-75
2021/03/01 03:41:49;;;;;;;67.50;38.27;;;;;;;;;;5081459;28;39268;-78
2021/03/01 03:44:16;;;;;;;83.53;41.33;;;;;;;;;;5083228;28;37894;-76
2021/03/01 03:46:43;;;;;;;106.50;47.20;;;;;;;;;;5080593;28;37903;-76
2021/03/01 03:49:10;;;;;;;76.67;39.20;;;;;;;;;;5077042;27;38893;-77
2021/03/01 03:51:37;;;;;;;69.70;36.97;;;;;;;;;;5082451;28;39180;-76
2021/03/01 03:54:11;;;;;;;66.80;35.80;;;;;;;;;;5082025;28;38671;-76
2021/03/01 03:56:38;;;;;;;72.50;38.93;;;;;;;;;;5076118;28;37856;-78
2021/03/01 03:59:06;;;;;;;71.20;36.83;;;;;;;;;;5096633;27;39560;-75
2021/03/01 04:01:33;;;;;;;67.57;35.43;;;;;;;;;;5084362;27;38731;-77
2021/03/01 04:04:03;;;;;;;65.63;33.17;;;;;;;;;;5083501;27;39374;-74
2021/03/01 04:06:31;;;;;;;71.83;36.37;;;;;;;;;;5081404;28;48893;-76
2021/03/01 04:08:57;;;;;;;78.33;37.20;;;;;;;;;;5083511;28;38213;-75
2021/03/01 04:11:25;;;;;;;63.47;33.93;;;;;;;;;;5082815;28;38657;-75
2021/03/01 04:13:53;;;;;;;81.20;37.90;;;;;;;;;;5080076;28;39282;-76
2021/03/01 04:16:21;;;;;;;69.73;35.07;;;;;;;;;;5081099;28;37269;-77
2021/03/01 04:18:49;;;;;;;62.03;31.40;;;;;;;;;;5087041;28;39622;-78
2021/03/01 04:21:16;;;;;;;59.27;31.60;;;;;;;;;;5082696;28;39312;-77
2021/03/01 04:23:43;;;;;;;58.10;30.67;;;;;;;;;;5081205;28;38225;-77
2021/03/01 04:26:10;;;;;;;62.17;31.97;;;;;;;;;;5075784;28;37709;-76
2021/03/01 04:28:37;;;;;;;55.30;29.47;;;;;;;;;;5077330;28;38160;-76
2021/03/01 04:31:04;;;;;;;60.27;30.77;;;;;;;;;;5080995;28;37995;-75
2021/03/01 04:33:31;;;;;;;80.37;35.43;;;;;;;;;;5077289;28;47086;-77
2021/03/01 04:35:58;;;;;;;57.57;29.33;;;;;;;;;;5081193;28;37157;-74
2021/03/01 04:38:24;;;;;;;58.50;30.83;;;;;;;;;;5083757;28;39693;-76
2021/03/01 04:40:51;;;;;;;53.33;29.90;;;;;;;;;;5081926;28;39644;-79
2021/03/01 04:43:19;;;;;;;54.77;29.50;;;;;;;;;;5076631;28;37776;-76
2021/03/01 04:45:45;;;;;;;61.73;30.83;;;;;;;;;;5077930;28;37678;-78
2021/03/01 04:48:12;;;;;;;58.13;30.03;;;;;;;;;;5073807;28;39683;-76
2021/03/01 04:50:39;;;;;;;53.37;29.20;;;;;;;;;;5075916;28;38419;-78
2021/03/01 04:53:06;;;;;;;56.63;29.40;;;;;;;;;;5079351;28;39389;-77
2021/03/01 04:55:32;;;;;;;58.67;30.57;;;;;;;;;;5078204;28;37054;-77
2021/03/01 04:57:59;;;;;;;65.53;31.17;;;;;;;;;;5077472;28;38647;-76
2021/03/01 05:00:26;;;;;;;59.77;30.33;;;;;;;;;;5078642;28;39555;-77
2021/03/01 05:02:52;;;;;;;61.20;31.27;;;;;;;;;;5077737;28;38810;-76
2021/03/01 05:05:20;;;;;;;63.27;31.57;;;;;;;;;;5080703;28;37710;-75
2021/03/01 05:07:47;;;;;;;67.53;32.87;;;;;;;;;;5081773;28;39487;-77
2021/03/01 05:10:14;;;;;;;63.90;30.73;;;;;;;;;;5075524;28;40495;-77
2021/03/01 05:12:40;;;;;;;60.77;29.77;;;;;;;;;;5079058;28;38690;-75
2021/03/01 05:15:07;;;;;;;61.27;31.43;;;;;;;;;;5080939;27;37246;-75
2021/03/01 05:17:33;;;;;;;69.13;33.37;;;;;;;;;;5080295;28;37976;-77
2021/03/01 05:19:59;;;;;;;67.30;32.37;;;;;;;;;;5095985;27;38492;-77
2021/03/01 05:22:26;;;;;;;57.10;30.70;;;;;;;;;;5078834;28;38428;-76
2021/03/01 05:24:52;;;;;;;76.43;34.43;;;;;;;;;;5079666;28;37991;-75
2021/03/01 05:27:20;;;;;;;73.37;35.33;;;;;;;;;;5074511;27;38976;-76
2021/03/01 05:29:46;;;;;;;67.57;33.63;;;;;;;;;;5079927;28;40192;-76
2021/03/01 05:32:12;;;;;;;71.87;34.47;;;;;;;;;;5075810;28;39662;-76
2021/03/01 05:34:39;;;;;;;70.30;35.03;;;;;;;;;;5077010;28;38902;-76
2021/03/01 05:37:05;;;;;;;73.07;34.43;;;;;;;;;;5079889;28;37862;-76
2021/03/01 05:39:32;;;;;;;71.97;33.13;;;;;;;;;;5084447;28;38640;-78
2021/03/01 05:41:59;;;;;;;70.50;33.70;;;;;;;;;;5079526;28;38830;-78
2021/03/01 05:44:25;;;;;;;63.67;31.13;;;;;;;;;;5092101;27;38130;-78
2021/03/01 05:46:54;;;;;;;65.57;32.53;;;;;;;;;;5077957;27;38987;-76
2021/03/01 05:49:21;;;;;;;70.73;33.97;;;;;;;;;;5078184;28;38903;-77
2021/03/01 05:51:52;;;;;;;79.13;34.47;;;;;;;;;;5079480;28;39124;-80
2021/03/01 05:54:25;;;;;;;82.07;34.40;;;;;;;;;;5081439;28;37142;-75
2021/03/01 05:56:51;;;;;;;77.70;34.20;;;;;;;;;;5085613;28;38522;-75
2021/03/01 05:59:18;;;;;;;78.17;35.03;;;;;;;;;;5080543;28;38608;-76
2021/03/01 06:01:45;;;;;;;76.97;35.30;;;;;;;;;;5083067;28;36579;-76
2021/03/01 06:04:12;;;;;;;81.77;36.23;;;;;;;;;;5075002;28;38171;-76
2021/03/01 06:06:38;;;;;;;90.90;38.93;;;;;;;;;;5070594;28;38409;-75
2021/03/01 06:09:05;;;;;;;80.97;35.37;;;;;;;;;;5074821;27;38600;-75
2021/03/01 06:11:31;;;;;;;75.33;33.53;;;;;;;;;;5072908;28;36909;-77
2021/03/01 06:14:01;;;;;;;75.17;34.37;;;;;;;;;;5075066;28;36929;-76
2021/03/01 06:16:29;;;;;;;75.27;33.33;;;;;;;;;;5077760;28;47094;-76
2021/03/01 06:18:55;;;;;;;78.57;34.90;;;;;;;;;;5092420;27;39776;-75
2021/03/01 06:21:22;;;;;;;76.53;33.83;;;;;;;;;;5068591;28;38193;-76
2021/03/01 06:23:49;;;;;;;72.77;33.77;;;;;;;;;;5080712;28;36853;-76
2021/03/01 06:26:19;;;;;;;72.40;33.03;;;;;;;;;;5080283;28;38962;-78
2021/03/01 06:28:49;;;;;;;84.97;35.63;;;;;;;;;;5082779;28;38923;-77
2021/03/01 06:31:34;;;;;;;81.00;34.23;;;;;;;;;;5077210;28;37886;-77
2021/03/01 06:34:16;;;;;;;77.97;34.93;;;;;;;;;;5075132;28;37945;-76
2021/03/01 06:37:03;;;;;;;82.20;35.43;;;;;;;;;;5073953;28;48079;-78
2021/03/01 06:39:31;;;;;;;78.00;33.60;;;;;;;;;;5081430;28;47459;-77
2021/03/01 06:41:58;;;;;;;68.73;33.37;;;;;;;;;;5077933;28;38329;-76
2021/03/01 06:44:24;;;;;;;70.70;33.30;;;;;;;;;;5075580;27;35769;-76
2021/03/01 06:46:52;;;;;;;76.07;34.60;;;;;;;;;;5093295;27;37627;-76
2021/03/01 06:49:19;;;;;;;72.37;34.57;;;;;;;;;;5075288;28;39665;-77
2021/03/01 06:51:45;;;;;;;82.57;35.53;;;;;;;;;;5077942;28;38755;-75
2021/03/01 06:54:12;;;;;;;77.30;34.13;;;;;;;;;;5081145;28;37111;-76
2021/03/01 06:56:40;;;;;;;86.47;35.87;;;;;;;;;;5081790;28;38626;-77
2021/03/01 06:59:10;;;;;;;84.20;35.50;;;;;;;;;;5095254;27;40896;-75
2021/03/01 07:01:43;;;;;;;73.83;33.63;;;;;;;;;;5076103;28;37854;-78
2021/03/01 07:04:09;;;;;;;77.45;34.42;;;;;;;;;;5082197;27;37393;-80
2021/03/01 07:06:36;;;;;;;80.73;34.93;;;;;;;;;;5079135;28;37944;-75
2021/03/01 07:09:02;;;;;;;76.13;33.93;;;;;;;;;;5076026;28;39653;-75
2021/03/01 07:11:28;;;;;;;69.97;32.93;;;;;;;;;;5082979;27;38080;-75
2021/03/01 07:13:58;;;;;;;76.20;33.03;;;;;;;;;;5084332;28;37131;-75
2021/03/01 07:16:25;;;;;;;88.80;36.33;;;;;;;;;;5066889;28;39587;-75
2021/03/01 07:18:51;;;;;;;85.17;33.97;;;;;;;;;;5063103;28;38275;-75
2021/03/01 07:21:18;;;;;;;87.77;36.67;;;;;;;;;;5058303;27;38334;-77
2021/03/01 07:23:46;;;;;;;85.00;33.93;;;;;;;;;;5059238;28;37060;-76
2021/03/01 07:26:13;;;;;;;72.77;32.63;;;;;;;;;;5061476;28;40501;-75
2021/03/01 07:28:42;;;;;;;85.63;36.30;;;;;;;;;;5056225;28;40352;-77
2021/03/01 07:31:09;;;;;;;82.03;34.50;;;;;;;;;;5075746;28;38615;-75
2021/03/01 07:33:36;;;;;;;78.53;34.60;;;;;;;;;;5067705;28;38370;-77
2021/03/01 07:36:03;;;;;;;86.57;36.87;;;;;;;;;;5081021;27;37810;-75
2021/03/01 07:38:30;;;;;;;94.07;37.60;;;;;;;;;;5058502;28;36787;-77
2021/03/01 07:40:57;;;;;;;85.03;37.97;;;;;;;;;;5055707;27;40012;-76
2021/03/01 07:43:24;;;;;;;102.63;38.80;;;;;;;;;;5060335;27;37657;-76
2021/03/01 07:45:51;;;;;;;84.90;37.40;;;;;;;;;;5078897;28;38814;-76
2021/03/01 07:48:17;;;;;;;89.33;37.70;;;;;;;;;;5081706;27;39599;-77
2021/03/01 07:50:46;;;;;;;92.70;38.37;;;;;;;;;;5085317;28;37820;-76
2021/03/01 07:53:31;;;;;;;103.90;42.17;;;;;;;;;;5070820;27;37690;-76
2021/03/01 07:56:17;;;;;;;95.47;38.70;;;;;;;;;;5071734;28;40690;-77
2021/03/01 07:59:00;;;;;;;96.43;39.87;;;;;;;;;;5056181;28;47480;-74
2021/03/01 08:01:27;;;;;;;94.87;39.63;;;;;;;;;;5057702;28;38502;-79
2021/03/01 08:03:54;;;;;;;93.20;40.60;;;;;;;;;;5054379;28;38610;-77
2021/03/01 08:06:20;;;;;;;89.97;39.80;;;;;;;;;;5052888;28;39223;-77
2021/03/01 08:08:48;;;;;;;94.93;41.07;;;;;;;;;;5060170;28;38419;-78
2021/03/01 08:11:15;;;;;;;99.43;41.43;;;;;;;;;;5055914;28;38621;-76
2021/03/01 08:13:42;;;;;;;96.97;40.73;;;;;;;;;;5059582;28;36698;-76
2021/03/01 08:16:18;;;;;;;99.57;40.50;;;;;;;;;;5061536;28;40796;-76
2021/03/01 08:18:54;;;;;;;94.37;42.57;;;;;;;;;;5060927;28;39504;-76
2021/03/01 08:21:21;;;;;;;92.30;40.70;;;;;;;;;;5049863;28;38967;-78
2021/03/01 08:23:48;;;;;;;85.90;39.73;;;;;;;;;;5059587;28;37974;-75
2021/03/01 08:26:33;;;;;;;76.87;37.07;;;;;;;;;;5057743;28;40111;-76
2021/03/01 08:29:20;;;;;;;71.70;35.40;;;;;;;;;;5061101;28;39491;-77
2021/03/01 08:31:46;;;;;;;84.50;38.40;;;;;;;;;;5057051;28;46940;-75
2021/03/01 08:34:22;;;;;;;76.80;35.90;;;;;;;;;;5076955;28;36556;-76
2021/03/01 08:36:49;;;;;;;68.13;34.27;;;;;;;;;;5077084;28;40026;-77
2021/03/01 08:39:15;;;;;;;65.77;33.50;;;;;;;;;;5078101;28;37545;-75
2021/03/01 08:41:43;;;;;;;69.00;33.33;;;;;;;;;;5082744;28;39987;-76
2021/03/01 08:44:22;;;;;;;63.90;32.97;;;;;;;;;;5079689;28;37566;-75
2021/03/01 08:46:50;;;;;;;73.77;35.30;;;;;;;;;;5090049;28;39736;-77
2021/03/01 08:49:26;;;;;;;72.07;33.87;;;;;;;;;;5076234;28;40067;-76
2021/03/01 08:51:52;;;;;;;67.93;33.87;;;;;;;;;;5076065;28;39022;-75
2021/03/01 08:54:31;;;;;;;67.67;34.63;;;;;;;;;;5076513;28;38640;-76
2021/03/01 08:57:05;;;;;;;72.17;37.13;;;;;;;;;;5074558;28;39926;-77
2021/03/01 08:59:32;;;;;;;69.23;35.50;;;;;;;;;;5071388;28;47228;-77
2021/03/01 09:01:58;;;;;;;75.30;35.40;;;;;;;;;;5073852;28;39437;-75
2021/03/01 09:04:24;;;;;;;69.33;34.47;;;;;;;;;;5068822;28;37771;-76
2021/03/01 09:06:51;;;;;;;57.07;31.33;;;;;;;;;;5076780;28;38802;-78
2021/03/01 09:09:17;;;;;;;56.03;31.10;;;;;;;;;;5079675;28;38903;-74
2021/03/01 09:11:44;;;;;;;56.27;31.17;;;;;;;;;;5079876;28;39155;-75
2021/03/01 09:14:10;;;;;;;56.73;31.97;;;;;;;;;;5066140;27;37731;-76
2021/03/01 09:16:39;;;;;;;56.90;31.10;;;;;;;;;;5072400;27;39884;-77
2021/03/01 09:19:10;;;;;;;49.63;29.43;;;;;;;;;;5071508;28;40463;-76
2021/03/01 09:21:40;;;;;;;57.80;30.57;;;;;;;;;;5082782;27;38353;-76
2021/03/01 09:24:06;;;;;;;52.20;29.70;;;;;;;;;;5061546;28;37245;-76
2021/03/01 09:26:34;;;;;;;50.43;28.93;;;;;;;;;;5060455;28;39246;-75
2021/03/01 09:29:01;;;;;;;52.50;29.60;;;;;;;;;;5064322;28;39204;-77
2021/03/01 09:31:27;;;;;;;55.13;31.17;;;;;;;;;;5081622;27;38291;-74
2021/03/01 09:33:55;;;;;;;49.97;27.73;;;;;;;;;;5079985;28;36508;-75
2021/03/01 09:36:22;;;;;;;48.70;28.23;;;;;;;;;;5078741;28;37831;-74
2021/03/01 09:38:52;;;;;;;48.03;27.50;;;;;;;;;;5078458;28;39602;-75
2021/03/01 09:41:18;;;;;;;50.07;28.60;;;;;;;;;;5081861;28;37020;-78
2021/03/01 09:43:47;;;;;;;45.83;25.83;;;;;;;;;;5084006;28;36516;-73
2021/03/01 09:46:14;;;;;;;46.30;27.97;;;;;;;;;;5076823;28;37520;-78
2021/03/01 09:48:51;;;;;;;42.47;26.00;;;;;;;;;;5062136;28;37936;-77
2021/03/01 09:51:18;;;;;;;42.47;24.77;;;;;;;;;;5059424;28;37412;-77
2021/03/01 09:53:45;;;;;;;39.43;24.43;;;;;;;;;;5064302;28;36156;-75
2021/03/01 09:56:11;;;;;;;42.87;24.57;;;;;;;;;;5058729;28;39330;-77
2021/03/01 09:58:42;;;;;;;36.33;23.67;;;;;;;;;;5057858;28;38789;-77
2021/03/01 10:01:08;;;;;;;40.67;25.50;;;;;;;;;;5066704;28;39724;-74
2021/03/01 10:03:35;;;;;;;44.27;26.10;;;;;;;;;;5047947;28;38128;-74
2021/03/01 10:06:02;;;;;;;45.60;26.40;;;;;;;;;;5056708;27;40266;-77
2021/03/01 10:08:28;;;;;;;40.50;24.93;;;;;;;;;;5051597;27;38579;-75
2021/03/01 10:10:56;;;;;;;41.13;24.47;;;;;;;;;;5058032;28;40513;-75
2021/03/01 10:13:25;;;;;;;45.63;26.67;;;;;;;;;;5063236;28;37378;-78
2021/03/01 10:15:51;;;;;;;46.87;26.53;;;;;;;;;;5061523;28;37863;-79
2021/03/01 10:18:20;;;;;;;46.30;27.80;;;;;;;;;;5087126;28;39094;-76
2021/03/01 10:20:54;;;;;;;45.57;26.80;;;;;;;;;;5059362;28;38453;-77
2021/03/01 10:23:29;;;;;;;46.53;27.87;;;;;;;;;;5056122;28;37721;-76
2021/03/01 10:26:22;;;;;;;44.63;24.80;;;;;;;;;;5064816;28;40820;-76
2021/03/01 10:28:52;;;;;;;39.47;25.08;;;;;;;;;;5055260;28;47288;-75
2021/03/01 10:31:19;;;;;;;39.67;24.10;;;;;;;;;;5071857;28;38481;-76
2021/03/01 10:33:49;;;;;;;37.10;23.20;;;;;;;;;;5086013;27;36423;-75
2021/03/01 10:36:16;;;;;;;37.50;23.30;;;;;;;;;;5068059;28;41089;-77
2021/03/01 10:38:49;;;;;;;41.87;24.67;;;;;;;;;;5066468;28;40098;-77
2021/03/01 10:41:17;;;;;;;40.00;26.13;;;;;;;;;;5079368;28;38128;-76
2021/03/01 10:43:50;;;;;;;38.33;24.47;;;;;;;;;;5066409;28;35932;-75
2021/03/01 10:46:29;;;;;;;41.73;26.17;;;;;;;;;;5074297;28;38749;-79
2021/03/01 10:48:56;;;;;;;39.53;25.17;;;;;;;;;;5077539;28;38605;-75
2021/03/01 10:51:22;;;;;;;36.97;22.67;;;;;;;;;;5081812;28;40071;-79
2021/03/01 10:53:49;;;;;;;45.87;28.27;;;;;;;;;;5076686;28;35936;-76
2021/03/01 10:56:15;;;;;;;40.43;24.53;;;;;;;;;;5066441;28;39691;-76
2021/03/01 10:58:41;;;;;;;41.07;24.30;;;;;;;;;;5063602;28;38751;-74
2021/03/01 11:01:08;;;;;;;44.60;25.80;;;;;;;;;;5067230;28;38833;-75
2021/03/01 11:03:34;;;;;;;36.70;22.57;;;;;;;;;;5062514;28;37457;-75
2021/03/01 11:06:01;;;;;;;38.03;23.93;;;;;;;;;;5071286;28;36159;-74
2021/03/01 11:08:27;;;;;;;39.67;24.63;;;;;;;;;;5059442;28;47294;-77
2021/03/01 11:10:54;;;;;;;38.47;24.07;;;;;;;;;;5056485;28;38973;-78
2021/03/01 11:13:20;;;;;;;38.23;22.70;;;;;;;;;;5059736;28;35866;-77
2021/03/01 11:15:47;;;;;;;37.83;22.73;;;;;;;;;;5062176;28;39093;-83
2021/03/01 11:18:13;;;;;;;35.50;22.13;;;;;;;;;;5060467;28;38389;-79
2021/03/01 11:20:39;;;;;;;37.33;23.03;;;;;;;;;;5067911;28;38773;-80
2021/03/01 11:23:06;;;;;;;35.47;23.00;;;;;;;;;;5065007;28;37133;-77
2021/03/01 11:25:34;;;;;;;38.27;25.00;;;;;;;;;;5081077;28;40109;-80
2021/03/01 11:28:01;;;;;;;39.53;24.70;;;;;;;;;;5074134;28;39338;-77
2021/03/01 11:30:28;;;;;;;35.17;22.47;;;;;;;;;;5083388;28;47235;-80
2021/03/01 11:32:54;;;;;;;39.63;23.33;;;;;;;;;;5084632;28;36198;-78
2021/03/01 11:35:21;;;;;;;34.43;21.33;;;;;;;;;;5078561;28;39573;-82
2021/03/01 11:37:47;;;;;;;33.40;22.67;;;;;;;;;;5082128;28;38781;-78
2021/03/01 11:40:14;;;;;;;35.03;21.73;;;;;;;;;;5077203;28;39077;-79
2021/03/01 11:42:40;;;;;;;34.27;22.90;;;;;;;;;;5086048;28;37443;-80
2021/03/01 11:45:07;;;;;;;36.73;23.43;;;;;;;;;;5083440;28;38639;-80
2021/03/01 11:47:34;;;;;;;37.13;22.60;;;;;;;;;;5081825;28;39264;-77
2021/03/01 11:50:00;;;;;;;33.57;21.17;;;;;;;;;;5081790;28;39417;-76
2021/03/01 11:52:26;;;;;;;36.10;23.10;;;;;;;;;;5097272;27;38581;-80
2021/03/01 11:54:53;;;;;;;39.63;24.80;;;;;;;;;;5083599;28;40154;-79
2021/03/01 11:57:19;;;;;;;32.63;22.23;;;;;;;;;;5073039;27;39334;-76
2021/03/01 11:59:48;;;;;;;32.97;22.10;;;;;;;;;;5075376;28;38807;-77
2021/03/01 12:02:15;;;;;;;35.83;22.53;;;;;;;;;;5074262;28;38457;-80
2021/03/01 12:04:41;;;;;;;34.57;23.03;;;;;;;;;;5075288;28;38150;-81
2021/03/01 12:07:08;;;;;;;34.23;21.67;;;;;;;;;;5078285;28;39979;-75
2021/03/01 12:09:34;;;;;;;32.37;21.40;;;;;;;;;;5057008;28;37164;-76
2021/03/01 12:12:00;;;;;;;35.93;23.00;;;;;;;;;;5062026;28;37910;-74
2021/03/01 12:14:27;;;;;;;36.10;22.57;;;;;;;;;;5073947;28;37156;-75
2021/03/01 12:16:53;;;;;;;35.40;22.67;;;;;;;;;;5073198;28;38809;-75
2021/03/01 12:19:19;;;;;;;36.10;21.93;;;;;;;;;;5063703;27;40031;-74
2021/03/01 12:21:46;;;;;;;33.90;22.43;;;;;;;;;;5053942;28;37185;-73
2021/03/01 12:24:12;;;;;;;35.00;22.77;;;;;;;;;;5061672;28;38690;-74
2021/03/01 12:26:39;;;;;;;39.47;24.07;;;;;;;;;;5063222;28;38844;-74
2021/03/01 12:29:05;;;;;;;39.13;23.70;;;;;;;;;;5053811;28;38710;-75
2021/03/01 12:31:32;;;;;;;40.73;23.73;;;;;;;;;;5051130;28;38928;-74
2021/03/01 12:33:58;;;;;;;38.47;24.13;;;;;;;;;;5058019;28;40454;-75
2021/03/01 12:36:24;;;;;;;37.17;24.67;;;;;;;;;;5066065;27;37116;-76
2021/03/01 12:38:51;;;;;;;35.53;21.77;;;;;;;;;;5069805;28;38705;-75
2021/03/01 12:41:17;;;;;;;38.43;23.70;;;;;;;;;;5061222;28;37549;-77
2021/03/01 12:43:44;;;;;;;38.80;23.50;;;;;;;;;;5066679;28;40177;-77
2021/03/01 12:46:10;;;;;;;36.03;23.00;;;;;;;;;;5096250;27;38804;-77
2021/03/01 12:48:36;;;;;;;40.80;24.10;;;;;;;;;;5077012;27;39072;-75
2021/03/01 12:51:03;;;;;;;37.17;23.80;;;;;;;;;;5076052;28;38498;-76
2021/03/01 12:53:29;;;;;;;36.33;23.23;;;;;;;;;;5077844;28;40814;-76
2021/03/01 12:55:56;;;;;;;36.30;23.00;;;;;;;;;;5078496;28;39221;-76
2021/03/01 12:58:22;;;;;;;36.60;22.93;;;;;;;;;;5065819;28;38420;-77
2021/03/01 13:00:48;;;;;;;38.07;24.27;;;;;;;;;;5069904;28;37823;-77
2021/03/01 13:03:15;;;;;;;36.87;22.63;;;;;;;;;;5058060;28;37995;-79
2021/03/01 13:05:41;;;;;;;37.60;24.63;;;;;;;;;;5074356;28;38703;-75
2021/03/01 13:08:09;;;;;;;38.93;22.90;;;;;;;;;;5056616;28;39780;-76
2021/03/01 13:10:36;;;;;;;36.50;23.57;;;;;;;;;;5061485;28;35881;-76
2021/03/01 13:13:03;;;;;;;34.57;22.67;;;;;;;;;;5077573;28;39150;-75
2021/03/01 13:15:29;;;;;;;38.60;23.40;;;;;;;;;;5080948;28;40116;-77
2021/03/01 13:17:56;;;;;;;36.33;22.50;;;;;;;;;;5083749;28;38432;-76
2021/03/01 13:20:22;;;;;;;40.50;25.13;;;;;;;;;;5057162;28;37495;-75
2021/03/01 13:22:48;;;;;;;36.63;23.93;;;;;;;;;;5051742;28;38995;-77
2021/03/01 13:25:15;;;;;;;34.07;22.40;;;;;;;;;;5059158;28;38251;-79
2021/03/01 13:27:41;;;;;;;30.63;21.40;;;;;;;;;;5060400;28;39086;-76
2021/03/01 13:30:08;;;;;;;34.27;22.57;;;;;;;;;;5061544;27;38145;-76
2021/03/01 13:32:35;;;;;;;37.97;23.73;;;;;;;;;;5076737;28;40770;-77
2021/03/01 13:35:01;;;;;;;38.03;22.43;;;;;;;;;;5057158;28;38687;-79
2021/03/01 13:37:27;;;;;;;35.00;22.57;;;;;;;;;;5054262;28;39980;-76
2021/03/01 13:39:54;;;;;;;37.93;24.27;;;;;;;;;;5061138;28;35697;-77
2021/03/01 13:42:20;;;;;;;37.50;22.40;;;;;;;;;;5059228;28;40838;-80
2021/03/01 13:44:47;;;;;;;37.70;22.63;;;;;;;;;;5057034;28;40243;-77
2021/03/01 13:47:13;;;;;;;39.77;22.73;;;;;;;;;;5060264;28;38306;-78
2021/03/01 13:49:39;;;;;;;35.27;22.00;;;;;;;;;;5056735;28;37169;-80
2021/03/01 13:52:06;;;;;;;41.90;24.70;;;;;;;;;;5083609;28;39593;-77
2021/03/01 13:54:32;;;;;;;36.47;23.43;;;;;;;;;;5069292;28;39178;-81
2021/03/01 13:56:59;;;;;;;38.53;22.40;;;;;;;;;;5067349;28;38603;-76
2021/03/01 13:59:25;;;;;;;36.33;23.57;;;;;;;;;;5069626;28;37906;-79
2021/03/01 14:01:52;;;;;;;35.57;22.63;;;;;;;;;;5074442;28;40917;-77
2021/03/01 14:04:18;;;;;;;35.33;23.10;;;;;;;;;;5076420;28;38887;-76
2021/03/01 14:06:45;;;;;;;34.73;23.57;;;;;;;;;;5072379;28;38112;-79
2021/03/01 14:09:11;;;;;;;38.63;23.83;;;;;;;;;;5059650;28;36855;-75
2021/03/01 14:11:38;;;;;;;36.80;23.83;;;;;;;;;;5062860;28;39090;-79
2021/03/01 14:14:04;;;;;;;36.57;23.97;;;;;;;;;;5053659;28;39365;-78
2021/03/01 14:16:31;;;;;;;38.57;22.37;;;;;;;;;;5056682;28;38489;-80
2021/03/01 14:19:00;;;;;;;38.10;22.47;;;;;;;;;;5067305;28;37872;-79
2021/03/01 14:21:27;;;;;;;34.27;22.23;;;;;;;;;;5066411;28;39039;-85